sensor_id;sensor_type;location;lat;lon;timestamp;P1;durP1;ratioP1;P2;durP2;ratioP2
27383;SDS011;14851;51.166;4.760;2023-08-06T00:00:47;5.40;;;1.50;;
27383;SDS011;14851;51.166;4.760;2023-08-06T00:03:13;3.65;;;1.55;;
27383;SDS011;14851;51.166;4.760;2023-08-06T00:05:42;4.90;;;1.50;;
27383;SDS011;14851;51.166;4.760;2023-08-06T00:08:10;4.75;;;1.40;;
27383;SDS011;14851;51.166;4.760;2023-08-06T00:10:36;3.45;;;1.77;;
27383;SDS011;14851;51.166;4.760;2023-08-06T00:13:02;4.68;;;1.33;;
27383;SDS011;14851;51.166;4.760;2023-08-06T00:15:28;8.13;;;1.80;;
27383;SDS011;14851;51.166;4.760;2023-08-06T00:17:54;2.35;;;1.38;;
27383;SDS011;14851;51.166;4.760;2023-08-06T00:20:22;2.72;;;1.17;;
27383;SDS011;14851;51.166;4.760;2023-08-06T00:22:51;3.15;;;1.45;;
27383;SDS011;14851;51.166;4.760;2023-08-06T00:25:17;3.22;;;1.23;;
27383;SDS011;14851;51.166;4.760;2023-08-06T00:27:44;3.55;;;1.20;;
27383;SDS011;14851;51.166;4.760;2023-08-06T00:30:10;4.20;;;1.13;;
27383;SDS011;14851;51.166;4.760;2023-08-06T00:32:37;3.42;;;1.30;;
27383;SDS011;14851;51.166;4.760;2023-08-06T00:35:04;3.20;;;1.25;;
27383;SDS011;14851;51.166;4.760;2023-08-06T00:37:33;3.72;;;1.20;;
27383;SDS011;14851;51.166;4.760;2023-08-06T00:39:59;3.03;;;1.10;;
27383;SDS011;14851;51.166;4.760;2023-08-06T00:42:25;3.92;;;1.38;;
27383;SDS011;14851;51.166;4.760;2023-08-06T00:44:54;2.50;;;1.10;;
27383;SDS011;14851;51.166;4.760;2023-08-06T00:47:19;1.67;;;1.10;;
27383;SDS011;14851;51.166;4.760;2023-08-06T00:49:45;3.53;;;1.10;;
27383;SDS011;14851;51.166;4.760;2023-08-06T00:52:11;2.90;;;1.30;;
27383;SDS011;14851;51.166;4.760;2023-08-06T00:54:39;4.93;;;1.40;;
27383;SDS011;14851;51.166;4.760;2023-08-06T00:57:06;1.80;;;1.10;;
27383;SDS011;14851;51.166;4.760;2023-08-06T00:59:37;2.83;;;1.38;;
27383;SDS011;14851;51.166;4.760;2023-08-06T01:02:03;3.20;;;1.00;;
27383;SDS011;14851;51.166;4.760;2023-08-06T01:04:29;5.03;;;1.20;;
27383;SDS011;14851;51.166;4.760;2023-08-06T01:07:09;2.00;;;1.30;;
27383;SDS011;14851;51.166;4.760;2023-08-06T01:10:15;3.97;;;1.48;;
27383;SDS011;14851;51.166;4.760;2023-08-06T01:13:10;2.38;;;1.10;;
27383;SDS011;14851;51.166;4.760;2023-08-06T01:15:55;3.67;;;1.30;;
27383;SDS011;14851;51.166;4.760;2023-08-06T01:18:28;5.95;;;1.45;;
27383;SDS011;14851;51.166;4.760;2023-08-06T01:20:56;4.13;;;1.30;;
27383;SDS011;14851;51.166;4.760;2023-08-06T01:23:23;5.03;;;1.42;;
27383;SDS011;14851;51.166;4.760;2023-08-06T01:31:30;2.38;;;1.20;;
27383;SDS011;14851;51.166;4.760;2023-08-06T01:34:01;2.55;;;1.30;;
27383;SDS011;14851;51.166;4.760;2023-08-06T01:36:29;2.72;;;1.42;;
27383;SDS011;14851;51.166;4.760;2023-08-06T01:38:55;1.67;;;1.20;;
27383;SDS011;14851;51.166;4.760;2023-08-06T01:41:24;1.75;;;1.30;;
27383;SDS011;14851;51.166;4.760;2023-08-06T01:43:50;4.88;;;1.35;;
27383;SDS011;14851;51.166;4.760;2023-08-06T01:46:17;3.45;;;1.40;;
27383;SDS011;14851;51.166;4.760;2023-08-06T01:48:43;3.97;;;1.35;;
27383;SDS011;14851;51.166;4.760;2023-08-06T01:51:09;3.55;;;1.10;;
27383;SDS011;14851;51.166;4.760;2023-08-06T01:53:39;4.57;;;1.40;;
27383;SDS011;14851;51.166;4.760;2023-08-06T01:56:05;3.63;;;1.45;;
27383;SDS011;14851;51.166;4.760;2023-08-06T01:58:31;3.25;;;1.40;;
27383;SDS011;14851;51.166;4.760;2023-08-06T02:00:57;4.72;;;1.55;;
27383;SDS011;14851;51.166;4.760;2023-08-06T02:03:23;2.33;;;1.48;;
27383;SDS011;14851;51.166;4.760;2023-08-06T02:05:50;3.33;;;1.20;;
27383;SDS011;14851;51.166;4.760;2023-08-06T02:08:17;3.38;;;1.58;;
27383;SDS011;14851;51.166;4.760;2023-08-06T02:10:45;1.92;;;1.40;;
27383;SDS011;14851;51.166;4.760;2023-08-06T02:13:14;2.80;;;1.40;;
27383;SDS011;14851;51.166;4.760;2023-08-06T02:15:44;4.35;;;1.67;;
27383;SDS011;14851;51.166;4.760;2023-08-06T02:18:15;4.28;;;1.67;;
27383;SDS011;14851;51.166;4.760;2023-08-06T02:20:42;2.55;;;1.60;;
27383;SDS011;14851;51.166;4.760;2023-08-06T02:23:08;3.50;;;1.40;;
27383;SDS011;14851;51.166;4.760;2023-08-06T02:25:34;5.85;;;1.67;;
27383;SDS011;14851;51.166;4.760;2023-08-06T02:28:02;2.75;;;1.63;;
27383;SDS011;14851;51.166;4.760;2023-08-06T02:30:28;3.85;;;1.38;;
27383;SDS011;14851;51.166;4.760;2023-08-06T02:32:55;3.65;;;1.83;;
27383;SDS011;14851;51.166;4.760;2023-08-06T02:35:21;3.33;;;1.73;;
27383;SDS011;14851;51.166;4.760;2023-08-06T02:37:47;4.05;;;1.65;;
27383;SDS011;14851;51.166;4.760;2023-08-06T02:40:14;4.80;;;1.83;;
27383;SDS011;14851;51.166;4.760;2023-08-06T02:42:43;3.35;;;1.90;;
27383;SDS011;14851;51.166;4.760;2023-08-06T02:45:09;2.17;;;1.40;;
27383;SDS011;14851;51.166;4.760;2023-08-06T02:47:36;3.70;;;1.90;;
27383;SDS011;14851;51.166;4.760;2023-08-06T02:50:03;2.75;;;1.67;;
27383;SDS011;14851;51.166;4.760;2023-08-06T02:52:30;5.03;;;1.60;;
27383;SDS011;14851;51.166;4.760;2023-08-06T02:54:59;4.82;;;1.60;;
27383;SDS011;14851;51.166;4.760;2023-08-06T02:57:27;4.60;;;1.95;;
27383;SDS011;14851;51.166;4.760;2023-08-06T02:59:55;6.15;;;2.13;;
27383;SDS011;14851;51.166;4.760;2023-08-06T03:02:24;3.35;;;2.00;;
27383;SDS011;14851;51.166;4.760;2023-08-06T03:05:07;5.40;;;1.55;;
27383;SDS011;14851;51.166;4.760;2023-08-06T03:07:37;2.97;;;1.80;;
27383;SDS011;14851;51.166;4.760;2023-08-06T03:10:15;8.18;;;1.83;;
27383;SDS011;14851;51.166;4.760;2023-08-06T03:12:43;6.07;;;1.88;;
27383;SDS011;14851;51.166;4.760;2023-08-06T03:15:12;4.93;;;2.05;;
27383;SDS011;14851;51.166;4.760;2023-08-06T03:17:39;5.22;;;2.13;;
27383;SDS011;14851;51.166;4.760;2023-08-06T03:20:07;3.03;;;1.98;;
27383;SDS011;14851;51.166;4.760;2023-08-06T03:22:35;3.60;;;2.83;;
27383;SDS011;14851;51.166;4.760;2023-08-06T03:25:01;4.75;;;2.42;;
27383;SDS011;14851;51.166;4.760;2023-08-06T03:27:27;5.90;;;2.33;;
27383;SDS011;14851;51.166;4.760;2023-08-06T03:29:53;3.92;;;2.42;;
27383;SDS011;14851;51.166;4.760;2023-08-06T03:32:22;4.75;;;2.72;;
27383;SDS011;14851;51.166;4.760;2023-08-06T03:34:53;4.93;;;2.75;;
27383;SDS011;14851;51.166;4.760;2023-08-06T03:37:20;4.28;;;2.75;;
27383;SDS011;14851;51.166;4.760;2023-08-06T03:39:49;4.25;;;2.30;;
27383;SDS011;14851;51.166;4.760;2023-08-06T03:42:19;2.60;;;1.87;;
27383;SDS011;14851;51.166;4.760;2023-08-06T03:44:46;4.00;;;1.90;;
27383;SDS011;14851;51.166;4.760;2023-08-06T03:47:13;3.17;;;1.90;;
27383;SDS011;14851;51.166;4.760;2023-08-06T03:49:39;3.70;;;1.85;;
27383;SDS011;14851;51.166;4.760;2023-08-06T03:52:09;1.88;;;1.55;;
27383;SDS011;14851;51.166;4.760;2023-08-06T03:54:35;4.47;;;1.75;;
27383;SDS011;14851;51.166;4.760;2023-08-06T03:57:01;2.30;;;1.48;;
27383;SDS011;14851;51.166;4.760;2023-08-06T03:59:27;2.05;;;1.50;;
27383;SDS011;14851;51.166;4.760;2023-08-06T04:01:55;4.63;;;1.42;;
27383;SDS011;14851;51.166;4.760;2023-08-06T04:04:22;4.50;;;1.40;;
27383;SDS011;14851;51.166;4.760;2023-08-06T04:06:48;2.08;;;1.20;;
27383;SDS011;14851;51.166;4.760;2023-08-06T04:09:14;1.52;;;1.25;;
27383;SDS011;14851;51.166;4.760;2023-08-06T04:11:40;1.30;;;1.20;;
27383;SDS011;14851;51.166;4.760;2023-08-06T04:14:08;1.85;;;1.17;;
27383;SDS011;14851;51.166;4.760;2023-08-06T04:16:37;1.52;;;1.42;;
27383;SDS011;14851;51.166;4.760;2023-08-06T04:19:06;2.50;;;0.90;;
27383;SDS011;14851;51.166;4.760;2023-08-06T04:21:32;1.08;;;0.85;;
27383;SDS011;14851;51.166;4.760;2023-08-06T04:23:59;2.92;;;1.30;;
27383;SDS011;14851;51.166;4.760;2023-08-06T04:26:25;1.58;;;1.40;;
27383;SDS011;14851;51.166;4.760;2023-08-06T04:28:54;3.83;;;3.03;;
27383;SDS011;14851;51.166;4.760;2023-08-06T04:31:21;4.32;;;3.45;;
27383;SDS011;14851;51.166;4.760;2023-08-06T04:33:47;4.72;;;4.32;;
27383;SDS011;14851;51.166;4.760;2023-08-06T04:36:14;4.55;;;4.15;;
27383;SDS011;14851;51.166;4.760;2023-08-06T04:38:40;5.65;;;4.72;;
27383;SDS011;14851;51.166;4.760;2023-08-06T04:43:36;7.88;;;6.47;;
27383;SDS011;14851;51.166;4.760;2023-08-06T04:46:02;8.20;;;7.00;;
27383;SDS011;14851;51.166;4.760;2023-08-06T04:48:28;9.93;;;8.27;;
27383;SDS011;14851;51.166;4.760;2023-08-06T04:50:56;9.27;;;8.30;;
27383;SDS011;14851;51.166;4.760;2023-08-06T04:53:22;11.02;;;8.57;;
27383;SDS011;14851;51.166;4.760;2023-08-06T04:55:48;11.32;;;8.18;;
27383;SDS011;14851;51.166;4.760;2023-08-06T04:58:14;9.35;;;6.70;;
27383;SDS011;14851;51.166;4.760;2023-08-06T05:00:42;5.50;;;3.75;;
27383;SDS011;14851;51.166;4.760;2023-08-06T05:03:08;2.67;;;2.20;;
27383;SDS011;14851;51.166;4.760;2023-08-06T05:05:34;7.85;;;1.60;;
27383;SDS011;14851;51.166;4.760;2023-08-06T05:08:01;5.13;;;1.52;;
27383;SDS011;14851;51.166;4.760;2023-08-06T05:10:27;2.88;;;1.70;;
27383;SDS011;14851;51.166;4.760;2023-08-06T05:12:53;5.03;;;2.08;;
27383;SDS011;14851;51.166;4.760;2023-08-06T05:15:22;7.30;;;2.35;;
27383;SDS011;14851;51.166;4.760;2023-08-06T05:17:50;10.68;;;2.97;;
27383;SDS011;14851;51.166;4.760;2023-08-06T05:20:16;4.05;;;2.50;;
27383;SDS011;14851;51.166;4.760;2023-08-06T05:22:42;6.40;;;3.10;;
27383;SDS011;14851;51.166;4.760;2023-08-06T05:25:09;5.90;;;3.33;;
27383;SDS011;14851;51.166;4.760;2023-08-06T05:27:38;6.82;;;3.67;;
27383;SDS011;14851;51.166;4.760;2023-08-06T05:30:04;7.13;;;4.30;;
27383;SDS011;14851;51.166;4.760;2023-08-06T05:32:31;6.40;;;4.13;;
27383;SDS011;14851;51.166;4.760;2023-08-06T05:34:56;5.65;;;3.88;;
27383;SDS011;14851;51.166;4.760;2023-08-06T05:37:22;5.32;;;3.90;;
27383;SDS011;14851;51.166;4.760;2023-08-06T05:39:48;6.97;;;4.05;;
27383;SDS011;14851;51.166;4.760;2023-08-06T05:42:14;7.82;;;4.55;;
27383;SDS011;14851;51.166;4.760;2023-08-06T05:44:40;5.35;;;4.60;;
27383;SDS011;14851;51.166;4.760;2023-08-06T05:47:06;4.80;;;3.58;;
27383;SDS011;14851;51.166;4.760;2023-08-06T05:49:31;6.28;;;3.65;;
27383;SDS011;14851;51.166;4.760;2023-08-06T05:51:57;5.10;;;3.83;;
27383;SDS011;14851;51.166;4.760;2023-08-06T05:54:23;6.38;;;3.25;;
27383;SDS011;14851;51.166;4.760;2023-08-06T05:56:49;8.50;;;3.20;;
27383;SDS011;14851;51.166;4.760;2023-08-06T05:59:17;5.95;;;3.38;;
27383;SDS011;14851;51.166;4.760;2023-08-06T06:01:43;6.05;;;3.28;;
27383;SDS011;14851;51.166;4.760;2023-08-06T06:04:09;4.80;;;2.92;;
27383;SDS011;14851;51.166;4.760;2023-08-06T06:06:35;7.00;;;2.80;;
27383;SDS011;14851;51.166;4.760;2023-08-06T06:09:00;5.40;;;2.67;;
27383;SDS011;14851;51.166;4.760;2023-08-06T06:11:26;6.03;;;2.63;;
27383;SDS011;14851;51.166;4.760;2023-08-06T06:13:54;8.63;;;2.80;;
27383;SDS011;14851;51.166;4.760;2023-08-06T06:16:20;9.00;;;2.60;;
27383;SDS011;14851;51.166;4.760;2023-08-06T06:18:46;7.35;;;3.10;;
27383;SDS011;14851;51.166;4.760;2023-08-06T06:21:12;10.93;;;2.80;;
27383;SDS011;14851;51.166;4.760;2023-08-06T06:23:38;8.95;;;2.83;;
27383;SDS011;14851;51.166;4.760;2023-08-06T06:26:04;7.63;;;2.55;;
27383;SDS011;14851;51.166;4.760;2023-08-06T06:28:33;9.45;;;2.42;;
27383;SDS011;14851;51.166;4.760;2023-08-06T06:31:01;8.65;;;2.78;;
27383;SDS011;14851;51.166;4.760;2023-08-06T06:33:28;6.07;;;2.77;;
27383;SDS011;14851;51.166;4.760;2023-08-06T06:35:56;12.75;;;3.47;;
27383;SDS011;14851;51.166;4.760;2023-08-06T06:38:22;9.48;;;2.65;;
27383;SDS011;14851;51.166;4.760;2023-08-06T06:40:54;12.23;;;3.08;;
27383;SDS011;14851;51.166;4.760;2023-08-06T06:43:20;9.38;;;2.58;;
27383;SDS011;14851;51.166;4.760;2023-08-06T06:45:46;8.98;;;3.40;;
27383;SDS011;14851;51.166;4.760;2023-08-06T06:50:43;8.45;;;2.90;;
27383;SDS011;14851;51.166;4.760;2023-08-06T06:53:12;11.80;;;2.80;;
27383;SDS011;14851;51.166;4.760;2023-08-06T06:55:37;5.57;;;2.60;;
27383;SDS011;14851;51.166;4.760;2023-08-06T06:58:03;10.23;;;3.13;;
27383;SDS011;14851;51.166;4.760;2023-08-06T07:00:29;6.70;;;2.95;;
27383;SDS011;14851;51.166;4.760;2023-08-06T07:02:55;8.85;;;2.95;;
27383;SDS011;14851;51.166;4.760;2023-08-06T07:05:22;7.95;;;2.90;;
27383;SDS011;14851;51.166;4.760;2023-08-06T07:07:47;10.55;;;3.10;;
27383;SDS011;14851;51.166;4.760;2023-08-06T07:10:13;8.32;;;2.58;;
27383;SDS011;14851;51.166;4.760;2023-08-06T07:12:39;9.88;;;3.58;;
27383;SDS011;14851;51.166;4.760;2023-08-06T07:15:08;8.23;;;3.03;;
27383;SDS011;14851;51.166;4.760;2023-08-06T07:17:35;10.38;;;3.65;;
27383;SDS011;14851;51.166;4.760;2023-08-06T07:20:04;6.07;;;2.63;;
27383;SDS011;14851;51.166;4.760;2023-08-06T07:22:31;9.68;;;3.05;;
27383;SDS011;14851;51.166;4.760;2023-08-06T07:24:57;8.32;;;2.83;;
27383;SDS011;14851;51.166;4.760;2023-08-06T07:27:23;9.32;;;3.38;;
27383;SDS011;14851;51.166;4.760;2023-08-06T07:29:50;7.30;;;2.47;;
27383;SDS011;14851;51.166;4.760;2023-08-06T07:32:16;11.30;;;2.92;;
27383;SDS011;14851;51.166;4.760;2023-08-06T07:34:42;8.43;;;2.47;;
27383;SDS011;14851;51.166;4.760;2023-08-06T07:37:07;6.72;;;2.63;;
27383;SDS011;14851;51.166;4.760;2023-08-06T07:39:33;7.97;;;2.20;;
27383;SDS011;14851;51.166;4.760;2023-08-06T07:42:02;9.20;;;2.30;;
27383;SDS011;14851;51.166;4.760;2023-08-06T07:44:29;8.55;;;2.45;;
27383;SDS011;14851;51.166;4.760;2023-08-06T07:46:55;7.03;;;1.77;;
27383;SDS011;14851;51.166;4.760;2023-08-06T07:49:23;10.15;;;2.72;;
27383;SDS011;14851;51.166;4.760;2023-08-06T07:51:49;11.40;;;2.45;;
27383;SDS011;14851;51.166;4.760;2023-08-06T07:54:18;10.82;;;2.28;;
27383;SDS011;14851;51.166;4.760;2023-08-06T07:56:44;8.88;;;2.10;;
27383;SDS011;14851;51.166;4.760;2023-08-06T07:59:10;7.40;;;1.90;;
27383;SDS011;14851;51.166;4.760;2023-08-06T08:01:36;8.50;;;1.85;;
27383;SDS011;14851;51.166;4.760;2023-08-06T08:04:02;12.32;;;2.15;;
27383;SDS011;14851;51.166;4.760;2023-08-06T08:06:29;9.25;;;1.80;;
27383;SDS011;14851;51.166;4.760;2023-08-06T08:08:55;12.63;;;2.10;;
27383;SDS011;14851;51.166;4.760;2023-08-06T08:11:23;7.25;;;1.45;;
27383;SDS011;14851;51.166;4.760;2023-08-06T08:13:49;11.02;;;2.10;;
27383;SDS011;14851;51.166;4.760;2023-08-06T08:16:15;11.98;;;1.77;;
27383;SDS011;14851;51.166;4.760;2023-08-06T08:18:40;9.70;;;2.10;;
27383;SDS011;14851;51.166;4.760;2023-08-06T08:21:06;14.13;;;2.05;;
27383;SDS011;14851;51.166;4.760;2023-08-06T08:23:32;10.70;;;2.15;;
27383;SDS011;14851;51.166;4.760;2023-08-06T08:26:00;13.60;;;2.67;;
27383;SDS011;14851;51.166;4.760;2023-08-06T08:28:28;9.90;;;2.15;;
27383;SDS011;14851;51.166;4.760;2023-08-06T08:30:55;11.30;;;2.42;;
27383;SDS011;14851;51.166;4.760;2023-08-06T08:33:21;10.43;;;2.00;;
27383;SDS011;14851;51.166;4.760;2023-08-06T08:35:49;9.25;;;2.05;;
27383;SDS011;14851;51.166;4.760;2023-08-06T08:38:15;10.85;;;2.05;;
27383;SDS011;14851;51.166;4.760;2023-08-06T08:40:45;9.25;;;1.65;;
27383;SDS011;14851;51.166;4.760;2023-08-06T08:43:15;10.05;;;2.00;;
27383;SDS011;14851;51.166;4.760;2023-08-06T08:45:42;10.57;;;1.80;;
27383;SDS011;14851;51.166;4.760;2023-08-06T08:48:11;11.43;;;1.98;;
27383;SDS011;14851;51.166;4.760;2023-08-06T08:50:39;11.77;;;2.85;;
27383;SDS011;14851;51.166;4.760;2023-08-06T08:53:06;7.28;;;1.77;;
27383;SDS011;14851;51.166;4.760;2023-08-06T08:55:33;9.55;;;1.95;;
27383;SDS011;14851;51.166;4.760;2023-08-06T08:57:59;9.40;;;2.22;;
27383;SDS011;14851;51.166;4.760;2023-08-06T09:00:25;9.07;;;2.22;;
27383;SDS011;14851;51.166;4.760;2023-08-06T09:02:51;9.05;;;2.97;;
27383;SDS011;14851;51.166;4.760;2023-08-06T09:05:18;9.38;;;2.20;;
27383;SDS011;14851;51.166;4.760;2023-08-06T09:07:47;10.15;;;1.55;;
27383;SDS011;14851;51.166;4.760;2023-08-06T09:10:14;12.30;;;2.17;;
27383;SDS011;14851;51.166;4.760;2023-08-06T09:12:46;11.75;;;1.60;;
27383;SDS011;14851;51.166;4.760;2023-08-06T09:15:13;8.63;;;1.85;;
27383;SDS011;14851;51.166;4.760;2023-08-06T09:17:38;9.10;;;1.80;;
27383;SDS011;14851;51.166;4.760;2023-08-06T09:20:13;11.55;;;2.42;;
27383;SDS011;14851;51.166;4.760;2023-08-06T09:22:39;8.85;;;1.40;;
27383;SDS011;14851;51.166;4.760;2023-08-06T09:25:06;11.27;;;1.70;;
27383;SDS011;14851;51.166;4.760;2023-08-06T09:27:37;7.85;;;1.60;;
27383;SDS011;14851;51.166;4.760;2023-08-06T09:30:04;12.27;;;1.90;;
27383;SDS011;14851;51.166;4.760;2023-08-06T09:32:44;8.82;;;1.45;;
27383;SDS011;14851;51.166;4.760;2023-08-06T09:35:19;9.82;;;1.42;;
27383;SDS011;14851;51.166;4.760;2023-08-06T09:37:45;11.88;;;2.00;;
27383;SDS011;14851;51.166;4.760;2023-08-06T09:42:53;9.82;;;2.17;;
27383;SDS011;14851;51.166;4.760;2023-08-06T09:45:20;6.28;;;1.27;;
27383;SDS011;14851;51.166;4.760;2023-08-06T09:47:48;9.05;;;1.33;;
27383;SDS011;14851;51.166;4.760;2023-08-06T09:50:15;6.00;;;0.90;;
27383;SDS011;14851;51.166;4.760;2023-08-06T09:52:44;6.22;;;1.35;;
27383;SDS011;14851;51.166;4.760;2023-08-06T09:55:12;7.63;;;1.25;;
27383;SDS011;14851;51.166;4.760;2023-08-06T09:57:39;6.13;;;1.23;;
27383;SDS011;14851;51.166;4.760;2023-08-06T10:00:07;4.90;;;1.45;;
27383;SDS011;14851;51.166;4.760;2023-08-06T10:02:39;5.35;;;1.33;;
27383;SDS011;14851;51.166;4.760;2023-08-06T10:05:05;5.85;;;1.48;;
27383;SDS011;14851;51.166;4.760;2023-08-06T10:07:32;7.35;;;1.38;;
27383;SDS011;14851;51.166;4.760;2023-08-06T10:09:59;10.73;;;2.05;;
27383;SDS011;14851;51.166;4.760;2023-08-06T10:12:26;6.45;;;1.40;;
27383;SDS011;14851;51.166;4.760;2023-08-06T10:17:24;5.60;;;1.08;;
27383;SDS011;14851;51.166;4.760;2023-08-06T10:19:50;4.10;;;1.30;;
27383;SDS011;14851;51.166;4.760;2023-08-06T10:22:20;12.20;;;2.40;;
27383;SDS011;14851;51.166;4.760;2023-08-06T10:30:20;16.02;;;1.92;;
27383;SDS011;14851;51.166;4.760;2023-08-06T10:33:09;3.78;;;1.13;;
27383;SDS011;14851;51.166;4.760;2023-08-06T10:35:48;7.57;;;1.63;;
27383;SDS011;14851;51.166;4.760;2023-08-06T10:38:18;9.88;;;1.42;;
27383;SDS011;14851;51.166;4.760;2023-08-06T10:43:28;9.10;;;1.60;;
27383;SDS011;14851;51.166;4.760;2023-08-06T10:45:59;5.30;;;1.38;;
27383;SDS011;14851;51.166;4.760;2023-08-06T10:48:37;8.75;;;1.30;;
27383;SDS011;14851;51.166;4.760;2023-08-06T10:51:12;6.15;;;1.73;;
27383;SDS011;14851;51.166;4.760;2023-08-06T10:53:41;11.32;;;1.90;;
27383;SDS011;14851;51.166;4.760;2023-08-06T10:56:30;7.55;;;1.42;;
27383;SDS011;14851;51.166;4.760;2023-08-06T10:59:05;8.50;;;1.50;;
27383;SDS011;14851;51.166;4.760;2023-08-06T11:01:33;8.32;;;1.35;;
27383;SDS011;14851;51.166;4.760;2023-08-06T11:04:01;6.63;;;1.15;;
27383;SDS011;14851;51.166;4.760;2023-08-06T11:06:32;6.88;;;1.10;;
27383;SDS011;14851;51.166;4.760;2023-08-06T11:08:58;7.97;;;1.20;;
27383;SDS011;14851;51.166;4.760;2023-08-06T11:11:24;9.60;;;1.42;;
27383;SDS011;14851;51.166;4.760;2023-08-06T11:13:51;6.35;;;1.23;;
27383;SDS011;14851;51.166;4.760;2023-08-06T11:16:17;4.10;;;0.90;;
27383;SDS011;14851;51.166;4.760;2023-08-06T11:18:47;4.72;;;1.00;;
27383;SDS011;14851;51.166;4.760;2023-08-06T11:21:13;10.73;;;1.92;;
27383;SDS011;14851;51.166;4.760;2023-08-06T11:23:40;9.00;;;1.45;;
27383;SDS011;14851;51.166;4.760;2023-08-06T11:26:07;11.27;;;2.00;;
27383;SDS011;14851;51.166;4.760;2023-08-06T11:28:33;5.38;;;1.58;;
27383;SDS011;14851;51.166;4.760;2023-08-06T11:31:01;5.50;;;1.45;;
27383;SDS011;14851;51.166;4.760;2023-08-06T11:33:30;7.75;;;1.65;;
27383;SDS011;14851;51.166;4.760;2023-08-06T11:35:57;9.43;;;1.60;;
27383;SDS011;14851;51.166;4.760;2023-08-06T11:38:27;6.45;;;1.40;;
27383;SDS011;14851;51.166;4.760;2023-08-06T11:40:55;9.07;;;1.67;;
27383;SDS011;14851;51.166;4.760;2023-08-06T11:43:23;8.48;;;1.50;;
27383;SDS011;14851;51.166;4.760;2023-08-06T11:45:49;5.07;;;1.42;;
27383;SDS011;14851;51.166;4.760;2023-08-06T11:50:45;9.98;;;2.05;;
27383;SDS011;14851;51.166;4.760;2023-08-06T11:53:14;9.48;;;1.65;;
27383;SDS011;14851;51.166;4.760;2023-08-06T11:55:45;7.80;;;1.90;;
27383;SDS011;14851;51.166;4.760;2023-08-06T11:58:12;8.40;;;1.40;;
27383;SDS011;14851;51.166;4.760;2023-08-06T12:00:42;10.02;;;1.55;;
27383;SDS011;14851;51.166;4.760;2023-08-06T12:03:08;6.82;;;1.52;;
27383;SDS011;14851;51.166;4.760;2023-08-06T12:05:37;5.80;;;1.55;;
27383;SDS011;14851;51.166;4.760;2023-08-06T12:08:04;9.55;;;2.17;;
27383;SDS011;14851;51.166;4.760;2023-08-06T12:10:30;8.70;;;2.08;;
27383;SDS011;14851;51.166;4.760;2023-08-06T12:12:57;6.35;;;1.80;;
27383;SDS011;14851;51.166;4.760;2023-08-06T12:15:24;6.82;;;2.03;;
27383;SDS011;14851;51.166;4.760;2023-08-06T12:17:50;9.40;;;1.90;;
27383;SDS011;14851;51.166;4.760;2023-08-06T12:20:16;9.13;;;1.83;;
27383;SDS011;14851;51.166;4.760;2023-08-06T12:22:42;7.68;;;1.83;;
27383;SDS011;14851;51.166;4.760;2023-08-06T12:25:09;7.53;;;2.47;;
27383;SDS011;14851;51.166;4.760;2023-08-06T12:27:40;6.78;;;1.70;;
27383;SDS011;14851;51.166;4.760;2023-08-06T12:30:08;8.13;;;1.90;;
27383;SDS011;14851;51.166;4.760;2023-08-06T12:32:38;5.97;;;2.10;;
27383;SDS011;14851;51.166;4.760;2023-08-06T12:35:05;7.95;;;1.58;;
27383;SDS011;14851;51.166;4.760;2023-08-06T12:37:32;10.77;;;2.50;;
27383;SDS011;14851;51.166;4.760;2023-08-06T12:39:58;7.45;;;1.85;;
27383;SDS011;14851;51.166;4.760;2023-08-06T12:42:24;8.75;;;1.75;;
27383;SDS011;14851;51.166;4.760;2023-08-06T12:44:50;8.23;;;1.90;;
27383;SDS011;14851;51.166;4.760;2023-08-06T12:47:17;8.40;;;1.90;;
27383;SDS011;14851;51.166;4.760;2023-08-06T12:49:43;9.13;;;1.65;;
27383;SDS011;14851;51.166;4.760;2023-08-06T12:52:10;6.80;;;1.40;;
27383;SDS011;14851;51.166;4.760;2023-08-06T12:54:38;5.65;;;1.30;;
27383;SDS011;14851;51.166;4.760;2023-08-06T12:57:04;4.60;;;1.38;;
27383;SDS011;14851;51.166;4.760;2023-08-06T12:59:32;3.47;;;1.05;;
27383;SDS011;14851;51.166;4.760;2023-08-06T13:01:59;6.70;;;0.98;;
27383;SDS011;14851;51.166;4.760;2023-08-06T13:04:25;2.63;;;0.90;;
27383;SDS011;14851;51.166;4.760;2023-08-06T13:06:52;4.22;;;1.10;;
27383;SDS011;14851;51.166;4.760;2023-08-06T13:09:18;4.70;;;0.88;;
27383;SDS011;14851;51.166;4.760;2023-08-06T13:11:46;5.43;;;1.13;;
27383;SDS011;14851;51.166;4.760;2023-08-06T13:14:15;4.47;;;1.33;;
27383;SDS011;14851;51.166;4.760;2023-08-06T13:16:42;3.80;;;0.80;;
27383;SDS011;14851;51.166;4.760;2023-08-06T13:19:09;3.70;;;1.10;;
27383;SDS011;14851;51.166;4.760;2023-08-06T13:24:07;5.35;;;1.33;;
27383;SDS011;14851;51.166;4.760;2023-08-06T13:26:33;3.92;;;1.13;;
27383;SDS011;14851;51.166;4.760;2023-08-06T13:29:02;6.40;;;1.27;;
27383;SDS011;14851;51.166;4.760;2023-08-06T13:31:28;4.75;;;1.13;;
27383;SDS011;14851;51.166;4.760;2023-08-06T13:33:54;4.68;;;1.20;;
27383;SDS011;14851;51.166;4.760;2023-08-06T13:36:23;3.65;;;0.90;;
27383;SDS011;14851;51.166;4.760;2023-08-06T13:38:49;5.55;;;0.90;;
27383;SDS011;14851;51.166;4.760;2023-08-06T13:41:15;4.72;;;0.88;;
27383;SDS011;14851;51.166;4.760;2023-08-06T13:43:42;5.10;;;0.82;;
27383;SDS011;14851;51.166;4.760;2023-08-06T13:46:08;3.15;;;0.95;;
27383;SDS011;14851;51.166;4.760;2023-08-06T13:48:34;6.32;;;1.00;;
27383;SDS011;14851;51.166;4.760;2023-08-06T13:51:00;2.78;;;0.45;;
27383;SDS011;14851;51.166;4.760;2023-08-06T13:53:27;5.35;;;0.90;;
27383;SDS011;14851;51.166;4.760;2023-08-06T13:55:57;4.93;;;0.90;;
27383;SDS011;14851;51.166;4.760;2023-08-06T13:58:23;5.15;;;0.88;;
27383;SDS011;14851;51.166;4.760;2023-08-06T14:00:52;6.30;;;1.00;;
27383;SDS011;14851;51.166;4.760;2023-08-06T14:03:19;4.20;;;1.65;;
27383;SDS011;14851;51.166;4.760;2023-08-06T14:05:46;7.88;;;1.40;;
27383;SDS011;14851;51.166;4.760;2023-08-06T14:08:11;4.53;;;1.50;;
27383;SDS011;14851;51.166;4.760;2023-08-06T14:10:40;11.15;;;1.52;;
27383;SDS011;14851;51.166;4.760;2023-08-06T14:13:06;6.57;;;1.23;;
27383;SDS011;14851;51.166;4.760;2023-08-06T14:15:32;9.07;;;1.55;;
27383;SDS011;14851;51.166;4.760;2023-08-06T14:17:58;10.80;;;2.00;;
27383;SDS011;14851;51.166;4.760;2023-08-06T14:20:26;10.68;;;1.80;;
27383;SDS011;14851;51.166;4.760;2023-08-06T14:22:52;8.65;;;1.50;;
27383;SDS011;14851;51.166;4.760;2023-08-06T14:25:18;8.57;;;1.40;;
27383;SDS011;14851;51.166;4.760;2023-08-06T14:27:43;4.13;;;1.35;;
27383;SDS011;14851;51.166;4.760;2023-08-06T14:30:12;10.15;;;1.65;;
27383;SDS011;14851;51.166;4.760;2023-08-06T14:32:38;7.45;;;1.52;;
27383;SDS011;14851;51.166;4.760;2023-08-06T14:35:03;5.28;;;1.20;;
27383;SDS011;14851;51.166;4.760;2023-08-06T14:37:30;8.10;;;1.60;;
27383;SDS011;14851;51.166;4.760;2023-08-06T14:39:55;6.43;;;1.25;;
27383;SDS011;14851;51.166;4.760;2023-08-06T14:42:21;6.80;;;1.60;;
27383;SDS011;14851;51.166;4.760;2023-08-06T14:44:49;5.95;;;1.38;;
27383;SDS011;14851;51.166;4.760;2023-08-06T14:47:16;5.30;;;1.77;;
27383;SDS011;14851;51.166;4.760;2023-08-06T14:49:41;7.38;;;1.58;;
27383;SDS011;14851;51.166;4.760;2023-08-06T14:52:08;5.43;;;1.23;;
27383;SDS011;14851;51.166;4.760;2023-08-06T14:54:33;6.45;;;1.35;;
27383;SDS011;14851;51.166;4.760;2023-08-06T14:56:59;4.65;;;1.40;;
27383;SDS011;14851;51.166;4.760;2023-08-06T14:59:25;5.03;;;1.48;;
27383;SDS011;14851;51.166;4.760;2023-08-06T15:01:53;9.48;;;1.70;;
27383;SDS011;14851;51.166;4.760;2023-08-06T15:04:21;8.23;;;1.52;;
27383;SDS011;14851;51.166;4.760;2023-08-06T15:06:48;11.18;;;1.92;;
27383;SDS011;14851;51.166;4.760;2023-08-06T15:09:14;10.10;;;1.98;;
27383;SDS011;14851;51.166;4.760;2023-08-06T15:11:40;10.65;;;2.35;;
27383;SDS011;14851;51.166;4.760;2023-08-06T15:14:06;12.10;;;2.20;;
27383;SDS011;14851;51.166;4.760;2023-08-06T15:16:33;9.93;;;1.83;;